Gable, South Carolina
Current Conditions -  °F | °C
As of 10:55 AM on Friday 28 Nov 2014 (Local Time) from KCKI Reporting Station
Clear Clear  
Wind Chill: 40°   Ceiling: Unl
Heat Index: 45°   Visibility: 10mi
Dew Point: 27°   Wind: 8mph
Humidity: 49%   Direction: 40°NE
Pressure: 30.4"   Gusts: NA
Location:  33.82°N, 80.11°W
Report Text: KCKI 281555Z AUTO 04007KT 320V070 10SM CLR 07/M03 A3040 RMK AO2
Loading
Personal Weather Stations






























Interactive Weather Map New forecast layout! Learn more

10-Day Weather Forecast

Advertisements
Track Severe Weather on mobile